sensor_id;sensor_type;location;lat;lon;timestamp;pressure;altitude;pressure_sealevel;temperature;humidity
46015;BME280;36844;51.898;-0.874;2024-03-08T00:00:16;100330.69;;;18.40;
46015;BME280;36844;51.898;-0.874;2024-03-08T00:02:45;100320.75;;;18.33;
46015;BME280;36844;51.898;-0.874;2024-03-08T00:05:11;100330.72;;;18.36;
46015;BME280;36844;51.898;-0.874;2024-03-08T00:07:37;100313.88;;;18.25;
46015;BME280;36844;51.898;-0.874;2024-03-08T00:10:04;100327.72;;;18.31;
46015;BME280;36844;51.898;-0.874;2024-03-08T00:12:29;100316.28;;;18.20;
46015;BME280;36844;51.898;-0.874;2024-03-08T00:14:55;100319.66;;;18.27;
46015;BME280;36844;51.898;-0.874;2024-03-08T00:17:21;100315.81;;;18.25;
46015;BME280;36844;51.898;-0.874;2024-03-08T00:19:51;100310.88;;;18.20;
46015;BME280;36844;51.898;-0.874;2024-03-08T00:22:17;100318.94;;;18.23;
46015;BME280;36844;51.898;-0.874;2024-03-08T00:24:42;100310.91;;;18.16;
46015;BME280;36844;51.898;-0.874;2024-03-08T00:27:08;100304.03;;;18.12;
46015;BME280;36844;51.898;-0.874;2024-03-08T00:29:37;100304.81;;;18.09;
46015;BME280;36844;51.898;-0.874;2024-03-08T00:32:04;100310.59;;;18.07;
46015;BME280;36844;51.898;-0.874;2024-03-08T00:34:29;100297.13;;;18.07;
46015;BME280;36844;51.898;-0.874;2024-03-08T00:36:55;100289.50;;;17.99;
46015;BME280;36844;51.898;-0.874;2024-03-08T00:39:20;100291.38;;;18.02;
46015;BME280;36844;51.898;-0.874;2024-03-08T00:41:46;100294.09;;;18.02;
46015;BME280;36844;51.898;-0.874;2024-03-08T00:44:12;100299.44;;;18.05;
46015;BME280;36844;51.898;-0.874;2024-03-08T00:46:37;100298.28;;;18.03;
46015;BME280;36844;51.898;-0.874;2024-03-08T00:49:03;100279.94;;;17.91;
46015;BME280;36844;51.898;-0.874;2024-03-08T00:51:28;100276.88;;;17.89;
46015;BME280;36844;51.898;-0.874;2024-03-08T00:53:54;100275.72;;;17.90;
46015;BME280;36844;51.898;-0.874;2024-03-08T00:56:19;100268.03;;;17.88;
46015;BME280;36844;51.898;-0.874;2024-03-08T00:58:45;100269.59;;;17.86;
46015;BME280;36844;51.898;-0.874;2024-03-08T01:01:10;100272.63;;;17.91;
46015;BME280;36844;51.898;-0.874;2024-03-08T01:03:36;100259.97;;;17.85;
46015;BME280;36844;51.898;-0.874;2024-03-08T01:06:01;100255.72;;;17.87;
46015;BME280;36844;51.898;-0.874;2024-03-08T01:08:27;100254.63;;;17.81;
46015;BME280;36844;51.898;-0.874;2024-03-08T01:10:53;100243.09;;;17.81;
46015;BME280;36844;51.898;-0.874;2024-03-08T01:13:19;100237.31;;;17.78;
46015;BME280;36844;51.898;-0.874;2024-03-08T01:15:45;100210.53;;;17.64;
46015;BME280;36844;51.898;-0.874;2024-03-08T01:18:11;100238.53;;;17.74;
46015;BME280;36844;51.898;-0.874;2024-03-08T01:20:36;100226.63;;;17.71;
46015;BME280;36844;51.898;-0.874;2024-03-08T01:23:02;100230.47;;;17.70;
46015;BME280;36844;51.898;-0.874;2024-03-08T01:25:27;100220.16;;;17.65;
46015;BME280;36844;51.898;-0.874;2024-03-08T01:27:52;100216.72;;;17.61;
46015;BME280;36844;51.898;-0.874;2024-03-08T01:30:19;100218.59;;;17.64;
46015;BME280;36844;51.898;-0.874;2024-03-08T01:32:44;100216.66;;;17.68;
46015;BME280;36844;51.898;-0.874;2024-03-08T01:35:09;100219.72;;;17.67;
46015;BME280;36844;51.898;-0.874;2024-03-08T01:37:36;100187.19;;;17.51;
46015;BME280;36844;51.898;-0.874;2024-03-08T01:40:02;100201.38;;;17.58;
46015;BME280;36844;51.898;-0.874;2024-03-08T01:42:28;100186.44;;;17.50;
46015;BME280;36844;51.898;-0.874;2024-03-08T01:44:54;100191.00;;;17.53;
46015;BME280;36844;51.898;-0.874;2024-03-08T01:47:20;100188.34;;;17.50;
46015;BME280;36844;51.898;-0.874;2024-03-08T01:49:48;100196.75;;;17.52;
46015;BME280;36844;51.898;-0.874;2024-03-08T01:52:15;100188.34;;;17.50;
46015;BME280;36844;51.898;-0.874;2024-03-08T01:54:40;100190.66;;;17.44;
46015;BME280;36844;51.898;-0.874;2024-03-08T01:57:06;100191.00;;;17.53;
46015;BME280;36844;51.898;-0.874;2024-03-08T01:59:31;100192.16;;;17.52;
46015;BME280;36844;51.898;-0.874;2024-03-08T02:02:01;100177.66;;;17.43;
46015;BME280;36844;51.898;-0.874;2024-03-08T02:04:28;100189.13;;;17.50;
46015;BME280;36844;51.898;-0.874;2024-03-08T02:06:56;100179.53;;;17.46;
46015;BME280;36844;51.898;-0.874;2024-03-08T02:09:23;100170.75;;;17.38;
46015;BME280;36844;51.898;-0.874;2024-03-08T02:11:50;100171.47;;;17.42;
46015;BME280;36844;51.898;-0.874;2024-03-08T02:14:16;100174.50;;;17.44;
46015;BME280;36844;51.898;-0.874;2024-03-08T02:16:42;100158.44;;;17.37;
46015;BME280;36844;51.898;-0.874;2024-03-08T02:19:07;100153.84;;;17.34;
46015;BME280;36844;51.898;-0.874;2024-03-08T02:21:35;100150.00;;;17.35;
46015;BME280;36844;51.898;-0.874;2024-03-08T02:24:01;100131.63;;;17.27;
46015;BME280;36844;51.898;-0.874;2024-03-08T02:26:27;100147.66;;;17.37;
46015;BME280;36844;51.898;-0.874;2024-03-08T02:28:53;100146.56;;;17.35;
46015;BME280;36844;51.898;-0.874;2024-03-08T02:31:19;100130.47;;;17.28;
46015;BME280;36844;51.898;-0.874;2024-03-08T02:33:44;100136.94;;;17.34;
46015;BME280;36844;51.898;-0.874;2024-03-08T02:36:12;100127.00;;;17.27;
46015;BME280;36844;51.898;-0.874;2024-03-08T02:38:37;100125.44;;;17.30;
46015;BME280;36844;51.898;-0.874;2024-03-08T02:41:03;100115.50;;;17.23;
46015;BME280;36844;51.898;-0.874;2024-03-08T02:43:29;100117.38;;;17.26;
46015;BME280;36844;51.898;-0.874;2024-03-08T02:45:54;100109.31;;;17.26;
46015;BME280;36844;51.898;-0.874;2024-03-08T02:48:20;100113.56;;;17.27;
46015;BME280;36844;51.898;-0.874;2024-03-08T02:50:46;100105.84;;;17.26;
46015;BME280;36844;51.898;-0.874;2024-03-08T02:53:13;100095.50;;;17.24;
46015;BME280;36844;51.898;-0.874;2024-03-08T02:55:39;100100.91;;;17.24;
46015;BME280;36844;51.898;-0.874;2024-03-08T02:58:05;100096.66;;;17.23;
46015;BME280;36844;51.898;-0.874;2024-03-08T03:00:33;100084.06;;;17.17;
46015;BME280;36844;51.898;-0.874;2024-03-08T03:02:59;100077.50;;;17.14;
46015;BME280;36844;51.898;-0.874;2024-03-08T03:05:24;100092.09;;;17.20;
46015;BME280;36844;51.898;-0.874;2024-03-08T03:07:50;100072.56;;;17.13;
46015;BME280;36844;51.898;-0.874;2024-03-08T03:10:17;100071.00;;;17.12;
46015;BME280;36844;51.898;-0.874;2024-03-08T03:12:42;100075.63;;;17.11;
46015;BME280;36844;51.898;-0.874;2024-03-08T03:15:08;100055.72;;;17.02;
46015;BME280;36844;51.898;-0.874;2024-03-08T03:17:34;100067.50;;;17.15;
46015;BME280;36844;51.898;-0.874;2024-03-08T03:19:59;100061.09;;;17.05;
46015;BME280;36844;51.898;-0.874;2024-03-08T03:22:27;100068.31;;;17.12;
46015;BME280;36844;51.898;-0.874;2024-03-08T03:24:55;100060.28;;;17.08;
46015;BME280;36844;51.898;-0.874;2024-03-08T03:27:23;100069.47;;;17.11;
46015;BME280;36844;51.898;-0.874;2024-03-08T03:29:50;100046.09;;;17.04;
46015;BME280;36844;51.898;-0.874;2024-03-08T03:32:17;100036.88;;;17.02;
46015;BME280;36844;51.898;-0.874;2024-03-08T03:34:43;100024.63;;;16.97;
46015;BME280;36844;51.898;-0.874;2024-03-08T03:37:09;100033.00;;;17.06;
46015;BME280;36844;51.898;-0.874;2024-03-08T03:39:38;100026.16;;;16.98;
46015;BME280;36844;51.898;-0.874;2024-03-08T03:42:15;100025.06;;;16.92;
46015;BME280;36844;51.898;-0.874;2024-03-08T03:44:41;100034.56;;;17.04;
46015;BME280;36844;51.898;-0.874;2024-03-08T03:47:08;100025.78;;;16.96;
46015;BME280;36844;51.898;-0.874;2024-03-08T03:49:33;100034.97;;;17.02;
46015;BME280;36844;51.898;-0.874;2024-03-08T03:51:59;100027.28;;;17.01;
46015;BME280;36844;51.898;-0.874;2024-03-08T03:54:25;100016.16;;;16.95;
46015;BME280;36844;51.898;-0.874;2024-03-08T03:56:50;100015.84;;;16.93;
46015;BME280;36844;51.898;-0.874;2024-03-08T03:59:18;100004.34;;;16.89;
46015;BME280;36844;51.898;-0.874;2024-03-08T04:01:44;100013.16;;;16.93;
46015;BME280;36844;51.898;-0.874;2024-03-08T04:04:09;100015.03;;;16.96;
46015;BME280;36844;51.898;-0.874;2024-03-08T04:06:35;100009.72;;;16.89;
46015;BME280;36844;51.898;-0.874;2024-03-08T04:09:00;99995.94;;;16.80;
46015;BME280;36844;51.898;-0.874;2024-03-08T04:11:25;100018.53;;;16.93;
46015;BME280;36844;51.898;-0.874;2024-03-08T04:13:51;100011.59;;;16.92;
46015;BME280;36844;51.898;-0.874;2024-03-08T04:16:17;100002.03;;;16.91;
46015;BME280;36844;51.898;-0.874;2024-03-08T04:18:44;100003.16;;;16.90;
46015;BME280;36844;51.898;-0.874;2024-03-08T04:21:09;100004.34;;;16.89;
46015;BME280;36844;51.898;-0.874;2024-03-08T04:23:34;100000.53;;;16.83;
46015;BME280;36844;51.898;-0.874;2024-03-08T04:26:03;99988.28;;;16.78;
46015;BME280;36844;51.898;-0.874;2024-03-08T04:28:29;99995.16;;;16.83;
46015;BME280;36844;51.898;-0.874;2024-03-08T04:30:55;99992.09;;;16.81;
46015;BME280;36844;51.898;-0.874;2024-03-08T04:33:20;99986.03;;;16.73;
46015;BME280;36844;51.898;-0.874;2024-03-08T04:35:46;99995.22;;;16.76;
46015;BME280;36844;51.898;-0.874;2024-03-08T04:38:12;99990.25;;;16.71;
46015;BME280;36844;51.898;-0.874;2024-03-08T04:40:37;100003.63;;;16.82;
46015;BME280;36844;51.898;-0.874;2024-03-08T04:43:03;99983.75;;;16.72;
46015;BME280;36844;51.898;-0.874;2024-03-08T04:45:28;99987.94;;;16.73;
46015;BME280;36844;51.898;-0.874;2024-03-08T04:47:54;99996.38;;;16.75;
46015;BME280;36844;51.898;-0.874;2024-03-08T04:50:19;99996.00;;;16.73;
46015;BME280;36844;51.898;-0.874;2024-03-08T04:52:44;99991.38;;;16.77;
46015;BME280;36844;51.898;-0.874;2024-03-08T04:55:09;99980.28;;;16.71;
46015;BME280;36844;51.898;-0.874;2024-03-08T04:57:35;99991.78;;;16.75;
46015;BME280;36844;51.898;-0.874;2024-03-08T05:00:03;99974.53;;;16.69;
46015;BME280;36844;51.898;-0.874;2024-03-08T05:02:32;99973.00;;;16.72;
46015;BME280;36844;51.898;-0.874;2024-03-08T05:04:58;99971.03;;;16.72;
46015;BME280;36844;51.898;-0.874;2024-03-08T05:07:23;99963.81;;;16.66;
46015;BME280;36844;51.898;-0.874;2024-03-08T05:09:49;99963.78;;;16.69;
46015;BME280;36844;51.898;-0.874;2024-03-08T05:12:18;99956.91;;;16.65;
46015;BME280;36844;51.898;-0.874;2024-03-08T05:14:45;99949.19;;;16.67;
46015;BME280;36844;51.898;-0.874;2024-03-08T05:17:11;99960.31;;;16.69;
46015;BME280;36844;51.898;-0.874;2024-03-08T05:19:37;99960.31;;;16.69;
46015;BME280;36844;51.898;-0.874;2024-03-08T05:22:02;99958.03;;;16.67;
46015;BME280;36844;51.898;-0.874;2024-03-08T05:24:28;99937.00;;;16.55;
46015;BME280;36844;51.898;-0.874;2024-03-08T05:26:55;99953.06;;;16.66;
46015;BME280;36844;51.898;-0.874;2024-03-08T05:29:20;99950.75;;;16.64;
46015;BME280;36844;51.898;-0.874;2024-03-08T05:31:50;99937.00;;;16.55;
46015;BME280;36844;51.898;-0.874;2024-03-08T05:34:18;99948.09;;;16.61;
46015;BME280;36844;51.898;-0.874;2024-03-08T05:36:47;99932.84;;;16.51;
46015;BME280;36844;51.898;-0.874;2024-03-08T05:39:16;99938.91;;;16.58;
46015;BME280;36844;51.898;-0.874;2024-03-08T05:41:42;99936.59;;;16.60;
46015;BME280;36844;51.898;-0.874;2024-03-08T05:44:08;99919.41;;;16.51;
46015;BME280;36844;51.898;-0.874;2024-03-08T05:46:34;99913.28;;;16.47;
46015;BME280;36844;51.898;-0.874;2024-03-08T05:49:03;99926.63;;;16.57;
46015;BME280;36844;51.898;-0.874;2024-03-08T05:51:36;99920.88;;;16.55;
46015;BME280;36844;51.898;-0.874;2024-03-08T05:54:05;99907.16;;;16.46;
46015;BME280;36844;51.898;-0.874;2024-03-08T05:56:32;99898.72;;;16.44;
46015;BME280;36844;51.898;-0.874;2024-03-08T05:58:57;99901.00;;;16.46;
46015;BME280;36844;51.898;-0.874;2024-03-08T06:01:26;99894.81;;;16.49;
46015;BME280;36844;51.898;-0.874;2024-03-08T06:03:55;99895.63;;;16.46;
46015;BME280;36844;51.898;-0.874;2024-03-08T06:06:24;99886.81;;;16.42;
46015;BME280;36844;51.898;-0.874;2024-03-08T06:08:50;99888.38;;;16.43;
46015;BME280;36844;51.898;-0.874;2024-03-08T06:11:17;99881.44;;;16.42;
46015;BME280;36844;51.898;-0.874;2024-03-08T06:13:43;99889.13;;;16.43;
46015;BME280;36844;51.898;-0.874;2024-03-08T06:16:09;99877.25;;;16.41;
46015;BME280;36844;51.898;-0.874;2024-03-08T06:18:34;99867.31;;;16.34;
46015;BME280;36844;51.898;-0.874;2024-03-08T06:21:04;99875.66;;;16.47;
46015;BME280;36844;51.898;-0.874;2024-03-08T06:23:35;99873.38;;;16.42;
46015;BME280;36844;51.898;-0.874;2024-03-08T06:26:04;99860.38;;;16.37;
46015;BME280;36844;51.898;-0.874;2024-03-08T06:28:29;99865.72;;;16.40;
46015;BME280;36844;51.898;-0.874;2024-03-08T06:30:55;99864.25;;;16.36;
46015;BME280;36844;51.898;-0.874;2024-03-08T06:33:20;99859.66;;;16.33;
46015;BME280;36844;51.898;-0.874;2024-03-08T06:35:45;99848.91;;;16.29;
46015;BME280;36844;51.898;-0.874;2024-03-08T06:38:11;99851.25;;;16.27;
46015;BME280;36844;51.898;-0.874;2024-03-08T06:40:36;99859.59;;;16.40;
46015;BME280;36844;51.898;-0.874;2024-03-08T06:43:02;99848.53;;;16.31;
46015;BME280;36844;51.898;-0.874;2024-03-08T06:45:31;99859.66;;;16.33;
46015;BME280;36844;51.898;-0.874;2024-03-08T06:47:56;99870.72;;;16.38;
46015;BME280;36844;51.898;-0.874;2024-03-08T06:50:21;99862.31;;;16.36;
46015;BME280;36844;51.898;-0.874;2024-03-08T06:52:47;99861.56;;;16.36;
46015;BME280;36844;51.898;-0.874;2024-03-08T06:55:15;99860.44;;;16.30;
46015;BME280;36844;51.898;-0.874;2024-03-08T06:57:42;99861.94;;;16.34;
46015;BME280;36844;51.898;-0.874;2024-03-08T07:00:08;99840.56;;;16.24;
46015;BME280;36844;51.898;-0.874;2024-03-08T07:02:40;99865.72;;;16.40;
46015;BME280;36844;51.898;-0.874;2024-03-08T07:05:07;99864.19;;;16.43;
46015;BME280;36844;51.898;-0.874;2024-03-08T07:07:35;99856.88;;;16.43;
46015;BME280;36844;51.898;-0.874;2024-03-08T07:10:00;99858.06;;;16.39;
46015;BME280;36844;51.898;-0.874;2024-03-08T07:12:26;99845.81;;;16.34;
46015;BME280;36844;51.898;-0.874;2024-03-08T07:14:51;99864.47;;;16.52;
46015;BME280;36844;51.898;-0.874;2024-03-08T07:17:16;99860.31;;;16.44;
46015;BME280;36844;51.898;-0.874;2024-03-08T07:19:42;99868.66;;;16.56;
46015;BME280;36844;51.898;-0.874;2024-03-08T07:22:07;99863.25;;;16.60;
46015;BME280;36844;51.898;-0.874;2024-03-08T07:24:36;99869.34;;;16.64;
46015;BME280;36844;51.898;-0.874;2024-03-08T07:27:19;99855.94;;;16.60;
46015;BME280;36844;51.898;-0.874;2024-03-08T07:29:45;99848.63;;;16.61;
46015;BME280;36844;51.898;-0.874;2024-03-08T07:32:11;99857.75;;;16.74;
46015;BME280;36844;51.898;-0.874;2024-03-08T07:34:50;99848.50;;;16.75;
46015;BME280;36844;51.898;-0.874;2024-03-08T07:37:17;99854.91;;;16.85;
46015;BME280;36844;51.898;-0.874;2024-03-08T07:39:42;99854.50;;;16.90;
46015;BME280;36844;51.898;-0.874;2024-03-08T07:42:09;99841.06;;;16.86;
46015;BME280;36844;51.898;-0.874;2024-03-08T07:44:35;99846.72;;;16.95;
46015;BME280;36844;51.898;-0.874;2024-03-08T07:47:00;99849.72;;;17.04;
46015;BME280;36844;51.898;-0.874;2024-03-08T07:49:26;99851.22;;;17.09;
46015;BME280;36844;51.898;-0.874;2024-03-08T07:51:51;99838.94;;;17.04;
46015;BME280;36844;51.898;-0.874;2024-03-08T07:54:17;99849.53;;;17.18;
46015;BME280;36844;51.898;-0.874;2024-03-08T07:56:42;99830.34;;;17.16;
46015;BME280;36844;51.898;-0.874;2024-03-08T07:59:07;99836.84;;;17.19;
46015;BME280;36844;51.898;-0.874;2024-03-08T08:01:33;99842.47;;;17.31;
46015;BME280;36844;51.898;-0.874;2024-03-08T08:03:59;99832.84;;;17.30;
46015;BME280;36844;51.898;-0.874;2024-03-08T08:06:26;99828.50;;;17.40;
46015;BME280;36844;51.898;-0.874;2024-03-08T08:08:52;99819.66;;;17.39;
46015;BME280;36844;51.898;-0.874;2024-03-08T08:11:17;99824.56;;;17.44;
46015;BME280;36844;51.898;-0.874;2024-03-08T08:13:42;99827.84;;;17.55;
46015;BME280;36844;51.898;-0.874;2024-03-08T08:16:09;99830.47;;;17.62;
46015;BME280;36844;51.898;-0.874;2024-03-08T08:18:34;99824.22;;;17.69;
46015;BME280;36844;51.898;-0.874;2024-03-08T08:21:02;99816.53;;;17.67;
46015;BME280;36844;51.898;-0.874;2024-03-08T08:23:27;99824.81;;;17.80;
46015;BME280;36844;51.898;-0.874;2024-03-08T08:25:53;99808.72;;;17.77;
46015;BME280;36844;51.898;-0.874;2024-03-08T08:28:19;99827.28;;;17.94;
46015;BME280;36844;51.898;-0.874;2024-03-08T08:30:44;99826.81;;;17.99;
46015;BME280;36844;51.898;-0.874;2024-03-08T08:33:10;99827.13;;;18.05;
46015;BME280;36844;51.898;-0.874;2024-03-08T08:35:38;99813.28;;;18.03;
46015;BME280;36844;51.898;-0.874;2024-03-08T08:38:04;99810.47;;;18.10;
46015;BME280;36844;51.898;-0.874;2024-03-08T08:40:30;99792.81;;;18.09;
46015;BME280;36844;51.898;-0.874;2024-03-08T08:42:58;99816.38;;;18.24;
46015;BME280;36844;51.898;-0.874;2024-03-08T08:45:23;99796.00;;;18.23;
46015;BME280;36844;51.898;-0.874;2024-03-08T08:47:49;99798.63;;;18.27;
46015;BME280;36844;51.898;-0.874;2024-03-08T08:50:15;99776.38;;;18.23;
46015;BME280;36844;51.898;-0.874;2024-03-08T08:52:41;99780.00;;;18.32;
46015;BME280;36844;51.898;-0.874;2024-03-08T08:55:09;99786.09;;;18.36;
46015;BME280;36844;51.898;-0.874;2024-03-08T08:57:39;99806.31;;;18.48;
46015;BME280;36844;51.898;-0.874;2024-03-08T09:00:05;99797.41;;;18.51;
46015;BME280;36844;51.898;-0.874;2024-03-08T09:02:33;99797.00;;;18.52;
46015;BME280;36844;51.898;-0.874;2024-03-08T09:04:58;99784.66;;;18.51;
46015;BME280;36844;51.898;-0.874;2024-03-08T09:07:23;99780.03;;;18.52;
46015;BME280;36844;51.898;-0.874;2024-03-08T09:09:49;99804.50;;;18.61;
46015;BME280;36844;51.898;-0.874;2024-03-08T09:12:14;99783.84;;;18.54;
46015;BME280;36844;51.898;-0.874;2024-03-08T09:14:40;99791.72;;;18.65;
46015;BME280;36844;51.898;-0.874;2024-03-08T09:17:06;99778.53;;;18.51;
46015;BME280;36844;51.898;-0.874;2024-03-08T09:19:33;99784.72;;;18.67;
46015;BME280;36844;51.898;-0.874;2024-03-08T09:21:59;99782.78;;;18.68;
46015;BME280;36844;51.898;-0.874;2024-03-08T09:24:24;99787.03;;;18.69;
46015;BME280;36844;51.898;-0.874;2024-03-08T09:26:49;99769.81;;;18.63;
46015;BME280;36844;51.898;-0.874;2024-03-08T09:29:15;99764.84;;;18.61;
46015;BME280;36844;51.898;-0.874;2024-03-08T09:31:41;99760.53;;;18.64;
46015;BME280;36844;51.898;-0.874;2024-03-08T09:34:06;99771.59;;;18.69;
46015;BME280;36844;51.898;-0.874;2024-03-08T09:36:33;99740.63;;;18.58;
46015;BME280;36844;51.898;-0.874;2024-03-08T09:38:59;99763.13;;;18.67;
46015;BME280;36844;51.898;-0.874;2024-03-08T09:41:25;99750.88;;;18.66;
46015;BME280;36844;51.898;-0.874;2024-03-08T09:43:51;99744.72;;;18.66;
46015;BME280;36844;51.898;-0.874;2024-03-08T09:46:18;99723.94;;;18.63;
46015;BME280;36844;51.898;-0.874;2024-03-08T09:48:45;99732.81;;;18.63;
46015;BME280;36844;51.898;-0.874;2024-03-08T09:51:12;99734.00;;;18.62;
46015;BME280;36844;51.898;-0.874;2024-03-08T09:53:40;99729.69;;;18.65;
46015;BME280;36844;51.898;-0.874;2024-03-08T09:56:07;99720.91;;;18.61;
46015;BME280;36844;51.898;-0.874;2024-03-08T09:58:33;99706.34;;;18.58;
46015;BME280;36844;51.898;-0.874;2024-03-08T10:00:59;99704.72;;;18.61;
46015;BME280;36844;51.898;-0.874;2024-03-08T10:03:27;99713.13;;;18.66;
46015;BME280;36844;51.898;-0.874;2024-03-08T10:05:52;99707.72;;;18.66;
46015;BME280;36844;51.898;-0.874;2024-03-08T10:08:21;99699.25;;;18.64;
46015;BME280;36844;51.898;-0.874;2024-03-08T10:10:47;99693.53;;;18.62;
46015;BME280;36844;51.898;-0.874;2024-03-08T10:13:12;99695.72;;;18.67;
46015;BME280;36844;51.898;-0.874;2024-03-08T10:15:39;99683.22;;;18.57;
46015;BME280;36844;51.898;-0.874;2024-03-08T10:18:05;99676.22;;;18.60;
46015;BME280;36844;51.898;-0.874;2024-03-08T10:20:31;99692.53;;;18.72;
46015;BME280;36844;51.898;-0.874;2024-03-08T10:23:03;99682.91;;;18.71;
46015;BME280;36844;51.898;-0.874;2024-03-08T10:25:30;99682.44;;;18.77;
46015;BME280;36844;51.898;-0.874;2024-03-08T10:27:56;99668.25;;;18.72;
46015;BME280;36844;51.898;-0.874;2024-03-08T10:30:21;99672.03;;;18.75;
46015;BME280;36844;51.898;-0.874;2024-03-08T10:32:47;99673.34;;;18.87;
46015;BME280;36844;51.898;-0.874;2024-03-08T10:35:13;99666.47;;;18.82;
46015;BME280;36844;51.898;-0.874;2024-03-08T10:37:44;99670.88;;;18.92;
46015;BME280;36844;51.898;-0.874;2024-03-08T10:40:15;99663.13;;;18.94;
46015;BME280;36844;51.898;-0.874;2024-03-08T10:45:29;99647.28;;;18.96;
46015;BME280;36844;51.898;-0.874;2024-03-08T10:48:29;99662.91;;;19.05;
46015;BME280;36844;51.898;-0.874;2024-03-08T10:51:02;99634.38;;;19.04;
46015;BME280;36844;51.898;-0.874;2024-03-08T10:53:28;99641.44;;;19.14;
46015;BME280;36844;51.898;-0.874;2024-03-08T10:55:57;99632.50;;;19.17;
46015;BME280;36844;51.898;-0.874;2024-03-08T10:58:24;99622.38;;;19.21;
46015;BME280;36844;51.898;-0.874;2024-03-08T11:00:53;99615.03;;;19.21;
46015;BME280;36844;51.898;-0.874;2024-03-08T11:06:07;99608.28;;;19.29;
46015;BME280;36844;51.898;-0.874;2024-03-08T11:08:36;99595.28;;;19.24;
46015;BME280;36844;51.898;-0.874;2024-03-08T11:11:01;99599.84;;;19.27;
46015;BME280;36844;51.898;-0.874;2024-03-08T11:13:40;99606.59;;;19.35;
46015;BME280;36844;51.898;-0.874;2024-03-08T11:19:05;99581.84;;;19.37;
46015;BME280;36844;51.898;-0.874;2024-03-08T11:21:31;99571.91;;;19.34;
46015;BME280;36844;51.898;-0.874;2024-03-08T11:24:03;99570.31;;;19.36;
46015;BME280;36844;51.898;-0.874;2024-03-08T11:26:31;99563.72;;;19.37;
46015;BME280;36844;51.898;-0.874;2024-03-08T11:32:07;99564.28;;;19.45;
46015;BME280;36844;51.898;-0.874;2024-03-08T11:34:34;99557.53;;;19.37;
46015;BME280;36844;51.898;-0.874;2024-03-08T11:37:00;99554.34;;;19.42;
46015;BME280;36844;51.898;-0.874;2024-03-08T11:39:26;99560.72;;;19.48;
46015;BME280;36844;51.898;-0.874;2024-03-08T11:41:51;99558.00;;;19.48;
46015;BME280;36844;51.898;-0.874;2024-03-08T11:44:17;99545.47;;;19.41;
46015;BME280;36844;51.898;-0.874;2024-03-08T11:46:43;99537.13;;;19.36;
46015;BME280;36844;51.898;-0.874;2024-03-08T11:49:15;99552.97;;;19.50;
46015;BME280;36844;51.898;-0.874;2024-03-08T11:51:41;99540.84;;;19.42;
46015;BME280;36844;51.898;-0.874;2024-03-08T11:54:11;99546.03;;;19.49;
46015;BME280;36844;51.898;-0.874;2024-03-08T11:56:38;99533.91;;;19.41;
46015;BME280;36844;51.898;-0.874;2024-03-08T11:59:04;99534.16;;;19.46;
46015;BME280;36844;51.898;-0.874;2024-03-08T12:01:30;99542.16;;;19.50;
46015;BME280;36844;51.898;-0.874;2024-03-08T12:03:57;99511.75;;;19.33;
46015;BME280;36844;51.898;-0.874;2024-03-08T12:06:24;99518.81;;;19.43;
46015;BME280;36844;51.898;-0.874;2024-03-08T12:08:49;99513.06;;;19.41;
46015;BME280;36844;51.898;-0.874;2024-03-08T12:11:17;99516.09;;;19.43;
46015;BME280;36844;51.898;-0.874;2024-03-08T12:13:48;99523.66;;;19.48;
46015;BME280;36844;51.898;-0.874;2024-03-08T12:16:16;99493.09;;;19.39;
46015;BME280;36844;51.898;-0.874;2024-03-08T12:18:44;99507.16;;;19.46;
46015;BME280;36844;51.898;-0.874;2024-03-08T12:21:10;99489.31;;;19.36;
46015;BME280;36844;51.898;-0.874;2024-03-08T12:23:38;99480.53;;;19.32;
46015;BME280;36844;51.898;-0.874;2024-03-08T12:26:18;99494.50;;;19.43;
46015;BME280;36844;51.898;-0.874;2024-03-08T12:28:48;99472.44;;;19.32;
46015;BME280;36844;51.898;-0.874;2024-03-08T12:31:15;99456.44;;;19.25;
46015;BME280;36844;51.898;-0.874;2024-03-08T12:36:15;99467.59;;;19.40;
46015;BME280;36844;51.898;-0.874;2024-03-08T12:38:47;99475.69;;;19.40;
46015;BME280;36844;51.898;-0.874;2024-03-08T12:41:16;99465.00;;;19.36;
46015;BME280;36844;51.898;-0.874;2024-03-08T12:43:43;99453.53;;;19.32;
46015;BME280;36844;51.898;-0.874;2024-03-08T12:46:22;99461.75;;;19.29;
46015;BME280;36844;51.898;-0.874;2024-03-08T12:48:51;99455.59;;;19.28;
46015;BME280;36844;51.898;-0.874;2024-03-08T12:51:19;99448.78;;;19.24;
46015;BME280;36844;51.898;-0.874;2024-03-08T12:53:45;99460.03;;;19.35;
46015;BME280;36844;51.898;-0.874;2024-03-08T12:56:11;99456.25;;;19.32;
46015;BME280;36844;51.898;-0.874;2024-03-08T12:58:37;99449.00;;;19.29;
46015;BME280;36844;51.898;-0.874;2024-03-08T13:01:04;99438.94;;;19.30;
46015;BME280;36844;51.898;-0.874;2024-03-08T13:03:36;99435.19;;;19.27;
46015;BME280;36844;51.898;-0.874;2024-03-08T13:06:06;99434.31;;;19.30;
46015;BME280;36844;51.898;-0.874;2024-03-08T13:08:37;99440.47;;;19.31;
46015;BME280;36844;51.898;-0.874;2024-03-08T13:11:07;99426.09;;;19.34;
46015;BME280;36844;51.898;-0.874;2024-03-08T13:13:33;99417.47;;;19.26;
46015;BME280;36844;51.898;-0.874;2024-03-08T13:16:01;99411.53;;;19.31;
46015;BME280;36844;51.898;-0.874;2024-03-08T13:18:27;99410.88;;;19.27;
46015;BME280;36844;51.898;-0.874;2024-03-08T13:20:53;99411.53;;;19.31;
46015;BME280;36844;51.898;-0.874;2024-03-08T13:23:19;99401.28;;;19.26;
46015;BME280;36844;51.898;-0.874;2024-03-08T13:25:45;99387.25;;;19.19;
46015;BME280;36844;51.898;-0.874;2024-03-08T13:28:12;99409.16;;;19.33;
46015;BME280;36844;51.898;-0.874;2024-03-08T13:30:38;99383.22;;;19.23;
46015;BME280;36844;51.898;-0.874;2024-03-08T13:33:04;99384.00;;;19.24;
46015;BME280;36844;51.898;-0.874;2024-03-08T13:35:30;99401.91;;;19.30;
46015;BME280;36844;51.898;-0.874;2024-03-08T13:37:56;99388.31;;;19.21;
46015;BME280;36844;51.898;-0.874;2024-03-08T13:40:21;99386.25;;;19.25;
46015;BME280;36844;51.898;-0.874;2024-03-08T13:42:48;99378.06;;;19.29;
46015;BME280;36844;51.898;-0.874;2024-03-08T13:45:14;99386.59;;;19.27;
46015;BME280;36844;51.898;-0.874;2024-03-08T13:47:43;99377.00;;;19.26;
46015;BME280;36844;51.898;-0.874;2024-03-08T13:50:10;99380.88;;;19.25;
46015;BME280;36844;51.898;-0.874;2024-03-08T13:52:39;99369.41;;;19.21;